sensor_id;sensor_type;location;lat;lon;timestamp;temperature;humidity
45735;DHT22;31446;49.632;8.328;2023-02-28T00:13:16;0.40;99.90
45735;DHT22;31446;49.632;8.328;2023-02-28T00:28:23;0.30;99.90
45735;DHT22;31446;49.632;8.328;2023-02-28T00:43:29;0.20;99.90
45735;DHT22;31446;49.632;8.328;2023-02-28T00:58:35;0.10;99.90
45735;DHT22;31446;49.632;8.328;2023-02-28T01:13:41;0.00;99.90
45735;DHT22;31446;49.632;8.328;2023-02-28T01:28:48;0.00;99.90
45735;DHT22;31446;49.632;8.328;2023-02-28T01:44:03;-0.20;99.90
45735;DHT22;31446;49.632;8.328;2023-02-28T01:59:11;-0.20;99.90
45735;DHT22;31446;49.632;8.328;2023-02-28T02:14:35;-0.30;99.90
45735;DHT22;31446;49.632;8.328;2023-02-28T02:45:12;-0.40;99.90
45735;DHT22;31446;49.632;8.328;2023-02-28T03:00:25;-0.40;99.90
45735;DHT22;31446;49.632;8.328;2023-02-28T03:15:37;-0.30;99.90
45735;DHT22;31446;49.632;8.328;2023-02-28T03:30:50;-0.40;99.90
45735;DHT22;31446;49.632;8.328;2023-02-28T03:45:59;-0.40;99.90
45735;DHT22;31446;49.632;8.328;2023-02-28T04:01:08;-0.50;99.90
45735;DHT22;31446;49.632;8.328;2023-02-28T04:16:15;-0.60;99.90
45735;DHT22;31446;49.632;8.328;2023-02-28T04:31:21;-0.60;99.90
45735;DHT22;31446;49.632;8.328;2023-02-28T04:46:27;-0.70;99.90
45735;DHT22;31446;49.632;8.328;2023-02-28T05:01:34;-0.80;99.90
45735;DHT22;31446;49.632;8.328;2023-02-28T05:16:40;-1.00;99.90
45735;DHT22;31446;49.632;8.328;2023-02-28T05:31:47;-1.00;99.90
45735;DHT22;31446;49.632;8.328;2023-02-28T05:46:53;-1.10;99.90
45735;DHT22;31446;49.632;8.328;2023-02-28T06:01:59;-1.10;99.90
45735;DHT22;31446;49.632;8.328;2023-02-28T06:17:06;-1.00;99.90
45735;DHT22;31446;49.632;8.328;2023-02-28T06:32:12;-1.00;99.90
45735;DHT22;31446;49.632;8.328;2023-02-28T06:47:18;-0.80;99.90
45735;DHT22;31446;49.632;8.328;2023-02-28T07:02:28;-0.70;99.90
45735;DHT22;31446;49.632;8.328;2023-02-28T07:17:34;-0.60;99.90
45735;DHT22;31446;49.632;8.328;2023-02-28T07:32:40;-0.40;99.90
45735;DHT22;31446;49.632;8.328;2023-02-28T07:47:47;-0.20;99.90
45735;DHT22;31446;49.632;8.328;2023-02-28T08:02:53;0.20;99.90
45735;DHT22;31446;49.632;8.328;2023-02-28T08:17:59;0.80;99.90
45735;DHT22;31446;49.632;8.328;2023-02-28T08:33:05;1.10;99.90
45735;DHT22;31446;49.632;8.328;2023-02-28T08:48:11;2.80;99.90
45735;DHT22;31446;49.632;8.328;2023-02-28T09:03:17;3.40;99.90
45735;DHT22;31446;49.632;8.328;2023-02-28T09:18:24;3.50;99.90
45735;DHT22;31446;49.632;8.328;2023-02-28T09:33:30;3.80;99.90
45735;DHT22;31446;49.632;8.328;2023-02-28T09:48:41;3.90;99.90
45735;DHT22;31446;49.632;8.328;2023-02-28T10:03:53;4.40;99.80
45735;DHT22;31446;49.632;8.328;2023-02-28T10:19:04;4.40;98.90
45735;DHT22;31446;49.632;8.328;2023-02-28T10:34:12;5.80;97.40
45735;DHT22;31446;49.632;8.328;2023-02-28T10:49:21;5.90;94.10
45735;DHT22;31446;49.632;8.328;2023-02-28T11:04:37;5.60;92.80
45735;DHT22;31446;49.632;8.328;2023-02-28T11:19:46;5.70;92.70
45735;DHT22;31446;49.632;8.328;2023-02-28T11:35:04;5.90;91.60
45735;DHT22;31446;49.632;8.328;2023-02-28T11:50:31;5.80;91.30
45735;DHT22;31446;49.632;8.328;2023-02-28T12:05:45;6.00;90.90
45735;DHT22;31446;49.632;8.328;2023-02-28T12:20:56;6.90;90.40
45735;DHT22;31446;49.632;8.328;2023-02-28T12:36:05;7.00;90.10
45735;DHT22;31446;49.632;8.328;2023-02-28T12:51:16;7.50;89.40
45735;DHT22;31446;49.632;8.328;2023-02-28T13:06:33;9.00;85.80
45735;DHT22;31446;49.632;8.328;2023-02-28T13:21:47;7.60;87.30
45735;DHT22;31446;49.632;8.328;2023-02-28T13:52:44;8.30;86.50
45735;DHT22;31446;49.632;8.328;2023-02-28T14:07:53;7.10;87.30
45735;DHT22;31446;49.632;8.328;2023-02-28T14:23:04;7.10;87.30
45735;DHT22;31446;49.632;8.328;2023-02-28T14:38:16;7.20;87.50
45735;DHT22;31446;49.632;8.328;2023-02-28T14:53:28;7.00;86.40
45735;DHT22;31446;49.632;8.328;2023-02-28T15:08:35;6.70;87.50
45735;DHT22;31446;49.632;8.328;2023-02-28T15:23:42;6.80;87.50
45735;DHT22;31446;49.632;8.328;2023-02-28T15:38:52;6.80;87.30
45735;DHT22;31446;49.632;8.328;2023-02-28T15:54:00;6.90;88.00
45735;DHT22;31446;49.632;8.328;2023-02-28T16:09:10;6.90;88.10
45735;DHT22;31446;49.632;8.328;2023-02-28T16:24:16;6.20;88.70
45735;DHT22;31446;49.632;8.328;2023-02-28T16:39:22;5.80;89.80
45735;DHT22;31446;49.632;8.328;2023-02-28T16:54:29;5.70;90.40
45735;DHT22;31446;49.632;8.328;2023-02-28T17:09:35;5.60;90.50
45735;DHT22;31446;49.632;8.328;2023-02-28T17:24:43;5.20;91.40
45735;DHT22;31446;49.632;8.328;2023-02-28T17:39:49;5.10;91.60
45735;DHT22;31446;49.632;8.328;2023-02-28T17:54:55;4.80;92.10
45735;DHT22;31446;49.632;8.328;2023-02-28T18:10:02;4.40;92.80
45735;DHT22;31446;49.632;8.328;2023-02-28T18:25:10;4.40;92.70
45735;DHT22;31446;49.632;8.328;2023-02-28T18:40:20;3.90;93.70
45735;DHT22;31446;49.632;8.328;2023-02-28T18:55:30;3.80;94.00
45735;DHT22;31446;49.632;8.328;2023-02-28T19:10:37;3.50;95.20
45735;DHT22;31446;49.632;8.328;2023-02-28T19:25:45;3.20;96.10
45735;DHT22;31446;49.632;8.328;2023-02-28T19:40:58;2.90;96.90
45735;DHT22;31446;49.632;8.328;2023-02-28T19:56:05;2.60;97.50
45735;DHT22;31446;49.632;8.328;2023-02-28T20:11:14;2.60;97.70
45735;DHT22;31446;49.632;8.328;2023-02-28T20:26:20;2.40;98.40
45735;DHT22;31446;49.632;8.328;2023-02-28T20:41:27;2.40;98.60
45735;DHT22;31446;49.632;8.328;2023-02-28T20:56:33;1.80;99.70
45735;DHT22;31446;49.632;8.328;2023-02-28T21:11:40;1.50;99.90
45735;DHT22;31446;49.632;8.328;2023-02-28T21:26:47;1.60;99.90
45735;DHT22;31446;49.632;8.328;2023-02-28T21:41:54;1.50;99.90
45735;DHT22;31446;49.632;8.328;2023-02-28T21:57:05;1.40;99.90
45735;DHT22;31446;49.632;8.328;2023-02-28T22:12:16;1.10;99.90
45735;DHT22;31446;49.632;8.328;2023-02-28T22:27:22;0.90;99.90
45735;DHT22;31446;49.632;8.328;2023-02-28T22:42:31;0.80;99.90
45735;DHT22;31446;49.632;8.328;2023-02-28T22:57:38;0.60;99.90
45735;DHT22;31446;49.632;8.328;2023-02-28T23:12:44;0.50;99.90
45735;DHT22;31446;49.632;8.328;2023-02-28T23:27:55;0.30;99.90
45735;DHT22;31446;49.632;8.328;2023-02-28T23:43:01;0.00;99.90
45735;DHT22;31446;49.632;8.328;2023-02-28T23:58:07;0.10;99.90
